Time;durP1;ratioP1;P1;durP2;ratioP2;P2;SDS_P1;SDS_P2;PMS_P1;PMS_P2;Temp;Humidity;BMP_temperature;BMP_pressure;BME280_temperature;BME280_humidity;BME280_pressure;Samples;Min_cycle;Max_cycle;Signal;HPM_P1;HPM_P2
2022/07/18 00:00:17;;;;;;;4.53;4.22;;;22.70;47.10;;;;;;5024817;28;20567;-85
2022/07/18 00:02:42;;;;;;;5.15;4.85;;;22.70;48.00;;;;;;5018432;28;20193;-84
2022/07/18 00:05:08;;;;;;;4.15;3.95;;;22.80;46.50;;;;;;5015129;28;20190;-84
2022/07/18 00:07:34;;;;;;;4.25;3.95;;;22.90;46.70;;;;;;5011981;28;20522;-84
2022/07/18 00:10:00;;;;;;;4.90;4.60;;;22.80;46.70;;;;;;5026703;28;20201;-85
2022/07/18 00:12:25;;;;;;;4.25;4.05;;;22.90;47.30;;;;;;5023247;28;20178;-85
2022/07/18 00:14:51;;;;;;;5.00;4.57;;;22.80;47.40;;;;;;5022860;28;20201;-85
2022/07/18 00:17:17;;;;;;;4.50;4.20;;;22.70;48.20;;;;;;5014548;28;20245;-84
2022/07/18 00:19:43;;;;;;;4.45;4.15;;;22.80;47.40;;;;;;5001977;28;20632;-85
2022/07/18 00:22:08;;;;;;;4.70;4.30;;;22.80;47.40;;;;;;5018529;28;20189;-85
2022/07/18 00:24:34;;;;;;;4.45;4.25;;;22.90;47.20;;;;;;4993389;28;20193;-84
2022/07/18 00:27:00;;;;;;;4.50;4.20;;;22.80;47.20;;;;;;5013910;28;20210;-84
2022/07/18 00:29:26;;;;;;;4.22;4.03;;;22.80;47.10;;;;;;5020268;28;20189;-84
2022/07/18 00:31:52;;;;;;;4.32;4.03;;;22.80;46.90;;;;;;5011252;28;20233;-85
2022/07/18 00:34:18;;;;;;;4.53;4.18;;;22.90;46.70;;;;;;5018276;28;20224;-85
2022/07/18 00:36:44;;;;;;;4.53;4.22;;;22.90;47.00;;;;;;5023347;28;20225;-85
2022/07/18 00:39:09;;;;;;;4.57;4.30;;;23.00;46.90;;;;;;5019712;28;20209;-84
2022/07/18 00:41:35;;;;;;;4.43;4.13;;;22.90;46.70;;;;;;5018944;28;20225;-84
2022/07/18 00:44:02;;;;;;;4.78;4.38;;;22.90;47.00;;;;;;5014249;28;20189;-85
2022/07/18 00:46:28;;;;;;;5.10;4.70;;;22.90;47.20;;;;;;5021328;28;20424;-84
2022/07/18 00:48:54;;;;;;;4.35;4.05;;;22.80;47.20;;;;;;5009521;28;20284;-85
2022/07/18 00:51:21;;;;;;;4.53;4.22;;;22.80;46.90;;;;;;5004167;28;20205;-84
2022/07/18 00:53:48;;;;;;;4.63;4.22;;;22.80;47.00;;;;;;5021089;28;20625;-84
2022/07/18 00:56:18;;;;;;;4.78;4.47;;;22.70;47.20;;;;;;5017606;28;20220;-85
2022/07/18 00:58:44;;;;;;;4.35;4.03;;;22.70;47.10;;;;;;5017770;28;20202;-86
2022/07/18 01:03:55;;;;;;;4.28;4.07;;;22.60;47.50;;;;;;5014077;28;20237;-85
2022/07/18 01:06:21;;;;;;;4.90;4.60;;;22.60;47.50;;;;;;4998798;28;20206;-84
2022/07/18 01:08:47;;;;;;;4.45;4.15;;;22.40;47.90;;;;;;5024081;28;20279;-85
2022/07/18 01:11:13;;;;;;;4.63;4.32;;;22.40;48.20;;;;;;5022987;28;20194;-85
2022/07/18 01:13:41;;;;;;;4.60;4.30;;;22.40;48.40;;;;;;5013866;28;20190;-85
2022/07/18 01:16:07;;;;;;;4.90;4.47;;;22.30;48.50;;;;;;5027161;28;20201;-85
2022/07/18 01:18:33;;;;;;;4.57;4.28;;;22.20;48.90;;;;;;4995972;28;20656;-85
2022/07/18 01:20:59;;;;;;;4.75;4.38;;;22.20;48.80;;;;;;5018532;28;20233;-84
2022/07/18 01:23:25;;;;;;;5.00;4.70;;;22.30;48.90;;;;;;5010695;28;20189;-85
2022/07/18 01:25:51;;;;;;;4.72;4.43;;;22.00;49.00;;;;;;5015913;28;20862;-84
2022/07/18 01:28:17;;;;;;;4.70;4.40;;;21.50;50.50;;;;;;5017825;28;20203;-84
2022/07/18 01:30:43;;;;;;;5.70;4.30;;;21.20;51.80;;;;;;5013851;28;20192;-85
2022/07/18 01:33:08;;;;;;;4.50;4.20;;;21.30;51.90;;;;;;5014992;28;20300;-84
2022/07/18 01:35:34;;;;;;;5.00;4.70;;;21.40;51.80;;;;;;4996575;28;20630;-84
2022/07/18 01:38:02;;;;;;;4.55;4.32;;;21.40;51.60;;;;;;4994603;28;20212;-84
2022/07/18 01:40:27;;;;;;;4.57;4.28;;;21.50;51.20;;;;;;5015982;28;20185;-84
2022/07/18 01:42:53;;;;;;;5.05;4.65;;;21.60;51.30;;;;;;5017354;28;20188;-84
2022/07/18 01:45:19;;;;;;;5.13;4.82;;;21.50;51.30;;;;;;5015537;28;20251;-85
2022/07/18 01:47:45;;;;;;;6.00;4.32;;;21.50;51.50;;;;;;5015294;28;20188;-84
2022/07/18 01:50:12;;;;;;;4.90;4.60;;;21.40;51.70;;;;;;4992788;28;20278;-85
2022/07/18 01:52:39;;;;;;;4.57;4.18;;;21.40;51.50;;;;;;4996212;28;20239;-83
2022/07/18 01:55:07;;;;;;;5.10;4.80;;;21.40;51.30;;;;;;5010300;28;20205;-84
2022/07/18 01:57:33;;;;;;;5.18;4.88;;;21.30;51.60;;;;;;5013492;28;20189;-84
2022/07/18 01:59:59;;;;;;;4.70;4.40;;;21.30;51.70;;;;;;5015956;28;20273;-85
2022/07/18 02:02:24;;;;;;;4.90;4.53;;;21.30;51.90;;;;;;5001114;28;20215;-84
2022/07/18 02:05:02;;;;;;;4.55;4.25;;;21.30;52.00;;;;;;4996620;28;20189;-85
2022/07/18 02:07:35;;;;;;;4.63;4.28;;;21.40;51.30;;;;;;5016200;28;20283;-84
2022/07/18 02:10:05;;;;;;;4.85;4.45;;;21.40;51.40;;;;;;5013886;28;20239;-83
2022/07/18 02:12:30;;;;;;;4.95;4.65;;;21.30;51.80;;;;;;5024499;28;20180;-84
2022/07/18 02:14:56;;;;;;;5.10;4.70;;;21.30;51.90;;;;;;5014035;28;20275;-84
2022/07/18 02:17:22;;;;;;;5.15;4.75;;;21.30;52.10;;;;;;5022392;28;20224;-85
2022/07/18 02:19:47;;;;;;;5.05;4.60;;;21.30;52.00;;;;;;5009759;28;20190;-85
2022/07/18 02:22:13;;;;;;;5.00;4.70;;;21.10;52.30;;;;;;5017127;28;20186;-85
2022/07/18 02:24:39;;;;;;;4.68;4.38;;;21.00;52.80;;;;;;5017797;28;20203;-84
2022/07/18 02:27:05;;;;;;;4.80;4.47;;;20.90;52.90;;;;;;5013183;28;20263;-85
2022/07/18 02:29:31;;;;;;;4.00;3.80;;;20.90;53.10;;;;;;5009740;28;20229;-84
2022/07/18 02:31:56;;;;;;;5.05;4.72;;;21.00;53.10;;;;;;4980915;28;20206;-85
2022/07/18 02:34:22;;;;;;;4.60;4.30;;;21.00;53.50;;;;;;5017735;28;20219;-86
2022/07/18 02:36:50;;;;;;;4.60;4.32;;;21.00;53.10;;;;;;5017514;28;20268;-83
2022/07/18 02:39:16;;;;;;;4.60;4.30;;;21.10;52.70;;;;;;5017019;28;20547;-84
2022/07/18 02:41:43;;;;;;;4.10;3.83;;;21.10;52.90;;;;;;5013876;28;20211;-83
2022/07/18 02:44:08;;;;;;;4.90;4.50;;;21.20;52.40;;;;;;4994386;28;20753;-83
2022/07/18 02:46:34;;;;;;;4.65;4.35;;;21.10;52.50;;;;;;5011682;28;20286;-85
2022/07/18 02:49:00;;;;;;;4.70;4.40;;;21.20;52.30;;;;;;5008837;28;20569;-84
2022/07/18 02:51:26;;;;;;;11.23;5.20;;;21.10;52.30;;;;;;5014036;28;20328;-84
2022/07/18 02:53:52;;;;;;;11.88;5.13;;;21.20;52.20;;;;;;4997668;28;20189;-84
2022/07/18 02:56:18;;;;;;;7.13;4.85;;;21.10;52.60;;;;;;4992431;28;20220;-85
2022/07/18 02:58:44;;;;;;;6.68;4.38;;;21.00;52.70;;;;;;5006071;28;20216;-86
2022/07/18 03:01:09;;;;;;;4.55;4.25;;;21.10;52.80;;;;;;5021075;28;20192;-84
2022/07/18 03:03:35;;;;;;;4.55;4.30;;;21.00;52.60;;;;;;5013418;28;20207;-83
2022/07/18 03:06:01;;;;;;;5.20;4.20;;;20.90;52.80;;;;;;4984429;28;20246;-85
2022/07/18 03:08:26;;;;;;;6.18;4.55;;;20.80;53.60;;;;;;5025356;28;20191;-85
2022/07/18 03:10:52;;;;;;;4.68;4.32;;;20.80;53.50;;;;;;5019741;28;20208;-84
2022/07/18 03:13:18;;;;;;;4.95;4.55;;;20.80;53.20;;;;;;5014651;28;20284;-84
2022/07/18 03:15:43;;;;;;;4.70;4.30;;;20.70;53.70;;;;;;5019220;28;20222;-85
2022/07/18 03:18:09;;;;;;;6.82;4.50;;;20.70;53.60;;;;;;5011102;28;20251;-87
2022/07/18 03:20:35;;;;;;;5.15;4.68;;;20.80;53.50;;;;;;5015042;28;20273;-85
2022/07/18 03:23:05;;;;;;;4.85;4.45;;;20.80;53.60;;;;;;5008296;28;20198;-84
2022/07/18 03:25:31;;;;;;;14.13;4.65;;;20.80;53.30;;;;;;5013291;28;20302;-84
2022/07/18 03:27:57;;;;;;;5.55;4.93;;;20.70;53.70;;;;;;4988925;28;20192;-84
2022/07/18 03:30:23;;;;;;;4.70;4.22;;;20.60;53.80;;;;;;5009467;28;20196;-84
2022/07/18 03:32:49;;;;;;;4.13;3.92;;;20.60;54.00;;;;;;5023804;28;20191;-83
2022/07/18 03:35:14;;;;;;;6.38;4.60;;;20.40;54.70;;;;;;5022795;28;20218;-86
2022/07/18 03:37:40;;;;;;;4.80;4.35;;;20.40;55.00;;;;;;5024987;28;20263;-85
2022/07/18 03:40:07;;;;;;;6.90;4.40;;;20.40;54.90;;;;;;5020954;28;20197;-84
2022/07/18 03:42:33;;;;;;;5.95;4.47;;;20.50;54.60;;;;;;5009462;28;20247;-85
2022/07/18 03:44:59;;;;;;;5.55;4.72;;;20.40;54.60;;;;;;4998631;28;20187;-84
2022/07/18 03:47:25;;;;;;;4.47;4.18;;;20.50;54.20;;;;;;5015081;28;20230;-85
2022/07/18 03:49:50;;;;;;;6.22;4.65;;;20.40;54.60;;;;;;5021668;28;20688;-85
2022/07/18 03:52:16;;;;;;;5.78;4.60;;;20.40;54.90;;;;;;5010626;28;20207;-85
2022/07/18 03:54:42;;;;;;;5.40;4.90;;;20.40;54.90;;;;;;5012960;28;20190;-84
2022/07/18 03:57:07;;;;;;;4.93;4.53;;;20.30;54.90;;;;;;5016126;28;20222;-85
2022/07/18 03:59:35;;;;;;;5.15;4.75;;;20.20;54.40;;;;;;4970246;28;20226;-84
2022/07/18 04:02:01;;;;;;;4.80;4.45;;;20.20;54.80;;;;;;5001514;28;20186;-83
2022/07/18 04:04:26;;;;;;;4.60;4.30;;;20.30;54.40;;;;;;5024153;28;20192;-84
2022/07/18 04:06:52;;;;;;;4.93;4.60;;;20.30;54.50;;;;;;5014791;28;20210;-84
2022/07/18 04:09:18;;;;;;;4.93;4.45;;;20.20;54.60;;;;;;5011814;28;20183;-85
2022/07/18 04:11:44;;;;;;;8.18;4.35;;;20.00;55.40;;;;;;5003073;28;20206;-83
2022/07/18 04:14:09;;;;;;;5.00;4.50;;;20.10;55.30;;;;;;5020093;28;20217;-86
2022/07/18 04:16:35;;;;;;;8.80;4.40;;;20.00;54.80;;;;;;5004934;28;20261;-85
2022/07/18 04:19:01;;;;;;;5.57;4.05;;;19.90;55.30;;;;;;5012466;28;20212;-85
2022/07/18 04:21:26;;;;;;;19.05;5.13;;;20.00;55.20;;;;;;5019401;28;20208;-85
2022/07/18 04:23:53;;;;;;;22.23;6.20;;;20.00;55.60;;;;;;5017366;28;20255;-86
2022/07/18 04:26:19;;;;;;;4.72;4.40;;;19.90;55.30;;;;;;4980090;28;20237;-85
2022/07/18 04:28:44;;;;;;;8.90;4.57;;;20.00;55.40;;;;;;5022262;28;20194;-86
2022/07/18 04:31:10;;;;;;;4.65;4.35;;;20.10;55.30;;;;;;5000514;28;20200;-86
2022/07/18 04:33:36;;;;;;;5.25;4.75;;;20.00;55.30;;;;;;5020654;28;20190;-87
2022/07/18 04:36:02;;;;;;;7.90;4.88;;;20.00;55.50;;;;;;5009127;28;20222;-87
2022/07/18 04:38:30;;;;;;;15.57;5.03;;;20.00;55.20;;;;;;5007848;28;20222;-87
2022/07/18 04:40:56;;;;;;;7.50;4.80;;;20.00;55.20;;;;;;4990902;28;20210;-85
2022/07/18 04:43:22;;;;;;;10.95;5.15;;;20.10;55.30;;;;;;5022493;28;20186;-86
2022/07/18 04:45:48;;;;;;;12.63;5.70;;;20.10;55.50;;;;;;4997781;28;20247;-85
2022/07/18 04:48:13;;;;;;;11.57;5.40;;;20.20;55.80;;;;;;5016353;28;20248;-85
2022/07/18 04:50:39;;;;;;;10.70;5.35;;;20.30;55.70;;;;;;5011604;28;20250;-85
2022/07/18 04:53:05;;;;;;;11.63;5.43;;;20.40;55.50;;;;;;5020759;28;20201;-84
2022/07/18 04:55:30;;;;;;;10.25;5.07;;;20.40;55.30;;;;;;5022963;28;20216;-85
2022/07/18 04:57:56;;;;;;;21.45;5.57;;;20.40;55.40;;;;;;5012972;28;20212;-85
2022/07/18 05:00:24;;;;;;;18.75;5.57;;;20.30;55.90;;;;;;5024775;28;20186;-84
2022/07/18 05:02:52;;;;;;;13.35;5.47;;;20.40;54.90;;;;;;5008132;28;20191;-85
2022/07/18 05:05:19;;;;;;;9.10;4.78;;;20.40;54.50;;;;;;4998920;28;20255;-86
2022/07/18 05:07:45;;;;;;;5.53;4.60;;;20.50;54.60;;;;;;5016545;28;20198;-84
2022/07/18 05:10:13;;;;;;;5.78;5.18;;;20.40;54.50;;;;;;5008814;28;20187;-84
2022/07/18 05:12:41;;;;;;;4.57;4.25;;;20.40;55.00;;;;;;5021303;28;20190;-83
2022/07/18 05:15:09;;;;;;;9.00;5.03;;;20.40;54.90;;;;;;5021909;28;20598;-83
2022/07/18 05:17:35;;;;;;;5.22;4.47;;;20.30;55.40;;;;;;5021120;28;20250;-83
2022/07/18 05:20:03;;;;;;;4.53;4.13;;;20.40;55.00;;;;;;4991439;28;20269;-85
2022/07/18 05:22:29;;;;;;;4.93;4.35;;;20.50;53.50;;;;;;5021364;28;20237;-84
2022/07/18 05:24:54;;;;;;;7.00;5.20;;;20.20;50.40;;;;;;5006055;28;20201;-85
2022/07/18 05:27:20;;;;;;;5.47;4.57;;;20.20;51.70;;;;;;5027502;28;20202;-84
2022/07/18 05:29:47;;;;;;;7.40;4.38;;;20.20;51.70;;;;;;5020776;28;20197;-84
2022/07/18 05:32:13;;;;;;;7.88;4.95;;;20.30;50.60;;;;;;5019456;28;20202;-84
2022/07/18 05:34:38;;;;;;;4.60;4.30;;;20.40;50.20;;;;;;5013799;28;20196;-84
2022/07/18 05:37:04;;;;;;;5.25;4.75;;;20.30;50.60;;;;;;5024403;28;20697;-85
2022/07/18 05:39:30;;;;;;;5.10;4.30;;;20.30;50.00;;;;;;5022829;28;20221;-85
2022/07/18 05:41:56;;;;;;;4.32;4.03;;;20.30;50.60;;;;;;5023031;28;20249;-85
2022/07/18 05:44:21;;;;;;;4.95;3.97;;;20.40;50.00;;;;;;5025439;28;20198;-84
2022/07/18 05:46:48;;;;;;;4.57;4.15;;;20.40;49.90;;;;;;5019867;28;20209;-84
2022/07/18 05:49:14;;;;;;;4.43;4.13;;;20.50;50.30;;;;;;5006904;28;20208;-86
2022/07/18 05:51:40;;;;;;;6.25;4.65;;;20.50;49.00;;;;;;5028082;28;20214;-85
2022/07/18 05:54:06;;;;;;;5.30;4.43;;;20.50;48.80;;;;;;5007962;28;20223;-85
2022/07/18 05:56:32;;;;;;;4.30;3.90;;;20.50;48.70;;;;;;5029029;28;20218;-84
2022/07/18 05:58:58;;;;;;;8.18;4.32;;;20.70;49.70;;;;;;5006923;28;20219;-84
2022/07/18 06:01:24;;;;;;;5.45;4.80;;;20.90;49.90;;;;;;5023114;28;20275;-84
2022/07/18 06:03:49;;;;;;;8.88;4.97;;;20.90;49.50;;;;;;5022207;28;20221;-85
2022/07/18 06:06:16;;;;;;;9.18;4.75;;;20.90;49.40;;;;;;5022181;28;20230;-85
2022/07/18 06:08:42;;;;;;;6.70;4.45;;;20.90;49.00;;;;;;5019781;28;20203;-84
2022/07/18 06:11:08;;;;;;;5.30;4.80;;;20.90;48.10;;;;;;5016610;28;20188;-85
2022/07/18 06:13:39;;;;;;;6.20;4.82;;;21.00;47.30;;;;;;5000383;28;20200;-85
2022/07/18 06:16:06;;;;;;;5.05;4.57;;;21.10;48.00;;;;;;5017839;28;20658;-85
2022/07/18 06:18:34;;;;;;;4.97;4.47;;;21.10;47.30;;;;;;5015168;28;20205;-85
2022/07/18 06:21:01;;;;;;;7.50;5.03;;;21.20;47.20;;;;;;4995285;28;20188;-85
2022/07/18 06:23:27;;;;;;;5.60;5.10;;;21.20;46.30;;;;;;5018465;28;20266;-84
2022/07/18 06:25:52;;;;;;;6.28;4.50;;;21.30;46.80;;;;;;4999542;28;20214;-84
2022/07/18 06:28:18;;;;;;;5.75;4.47;;;21.20;45.80;;;;;;5016239;28;20193;-85
2022/07/18 06:30:44;;;;;;;4.90;4.50;;;21.30;46.30;;;;;;5014084;28;20186;-84
2022/07/18 06:33:10;;;;;;;5.95;4.50;;;21.30;45.50;;;;;;5017449;28;20235;-85
2022/07/18 06:35:36;;;;;;;6.28;4.30;;;21.40;45.70;;;;;;5002283;28;20221;-85
2022/07/18 06:38:02;;;;;;;4.90;4.40;;;21.40;44.70;;;;;;5015348;28;20359;-85
2022/07/18 06:40:27;;;;;;;4.50;4.10;;;21.50;44.60;;;;;;5017267;28;20187;-84
2022/07/18 06:42:53;;;;;;;4.40;4.00;;;21.60;44.00;;;;;;5019940;28;20202;-84
2022/07/18 06:45:19;;;;;;;5.18;4.70;;;21.70;44.90;;;;;;5015014;28;20195;-85
2022/07/18 06:47:46;;;;;;;4.47;4.18;;;21.80;44.10;;;;;;5016689;28;20267;-84
2022/07/18 06:50:12;;;;;;;4.43;4.10;;;21.80;43.10;;;;;;4999000;28;20204;-85
2022/07/18 06:52:39;;;;;;;4.45;4.15;;;22.00;42.70;;;;;;5016909;28;20201;-84
2022/07/18 06:55:06;;;;;;;4.93;4.25;;;22.10;40.90;;;;;;5022702;28;20223;-84
2022/07/18 06:57:32;;;;;;;4.70;4.22;;;22.20;40.50;;;;;;5027214;28;20224;-84
2022/07/18 06:59:58;;;;;;;4.50;4.20;;;22.30;41.40;;;;;;5000392;28;20593;-84
2022/07/18 07:02:23;;;;;;;4.43;4.03;;;22.40;41.20;;;;;;5022954;28;20234;-85
2022/07/18 07:04:49;;;;;;;4.70;4.40;;;22.30;41.30;;;;;;5007796;28;20263;-85
2022/07/18 07:07:15;;;;;;;4.57;4.25;;;22.40;42.60;;;;;;5015150;28;20214;-84
2022/07/18 07:09:41;;;;;;;4.50;4.20;;;22.50;43.70;;;;;;5017905;28;20203;-84
2022/07/18 07:12:06;;;;;;;4.65;4.25;;;22.60;40.90;;;;;;5013214;28;20193;-85
2022/07/18 07:14:32;;;;;;;4.95;4.53;;;22.70;41.80;;;;;;5015552;28;20554;-84
2022/07/18 07:16:58;;;;;;;4.10;3.80;;;22.80;39.00;;;;;;5017478;28;20212;-85
2022/07/18 07:19:24;;;;;;;4.57;3.83;;;22.70;38.30;;;;;;5014679;28;20216;-86
2022/07/18 07:21:50;;;;;;;7.55;4.22;;;22.90;38.80;;;;;;5017319;28;20186;-85
2022/07/18 07:24:16;;;;;;;4.20;3.80;;;23.10;38.50;;;;;;5014953;28;20224;-85
2022/07/18 07:26:41;;;;;;;4.32;3.92;;;23.10;37.90;;;;;;5018400;28;20201;-85
2022/07/18 07:29:07;;;;;;;4.45;4.05;;;23.20;38.20;;;;;;4998437;28;20193;-85
2022/07/18 07:31:33;;;;;;;4.13;3.83;;;23.20;37.80;;;;;;5013585;28;20225;-85
2022/07/18 07:33:58;;;;;;;4.82;3.90;;;23.50;37.60;;;;;;4997468;28;20293;-85
2022/07/18 07:36:24;;;;;;;6.07;4.25;;;23.50;38.70;;;;;;5010958;28;20216;-85
2022/07/18 07:38:50;;;;;;;4.40;4.00;;;23.50;38.20;;;;;;5016697;28;20214;-86
2022/07/18 07:41:15;;;;;;;4.55;4.10;;;23.70;38.20;;;;;;5022127;28;20268;-85
2022/07/18 07:43:41;;;;;;;8.13;3.88;;;23.70;38.30;;;;;;5021637;28;20644;-85
2022/07/18 07:46:07;;;;;;;7.10;3.88;;;23.90;38.50;;;;;;5016541;28;20257;-85
2022/07/18 07:48:32;;;;;;;7.65;4.07;;;23.90;37.30;;;;;;5026240;28;20174;-85
2022/07/18 07:50:58;;;;;;;5.90;4.38;;;24.00;37.30;;;;;;5017146;28;20193;-85
2022/07/18 07:53:24;;;;;;;4.30;4.00;;;24.00;37.20;;;;;;5029966;28;20185;-86
2022/07/18 07:55:51;;;;;;;4.25;3.85;;;24.10;38.40;;;;;;5023849;28;20696;-85
2022/07/18 07:58:16;;;;;;;6.70;4.07;;;24.20;37.60;;;;;;5002026;28;20268;-84
2022/07/18 08:00:42;;;;;;;4.22;3.80;;;24.20;36.90;;;;;;5019290;28;20194;-85
2022/07/18 08:03:08;;;;;;;4.80;4.30;;;24.40;36.10;;;;;;4999540;28;20190;-85
2022/07/18 08:05:44;;;;;;;7.68;4.32;;;24.40;37.30;;;;;;5015706;28;20212;-85
2022/07/18 08:08:10;;;;;;;5.15;4.20;;;24.50;37.30;;;;;;5024294;28;20201;-85
2022/07/18 08:10:36;;;;;;;4.55;3.90;;;24.70;37.20;;;;;;5022668;28;20221;-86
2022/07/18 08:13:01;;;;;;;6.45;4.50;;;24.80;37.20;;;;;;5002118;28;20189;-86
2022/07/18 08:15:28;;;;;;;6.07;4.15;;;24.90;36.30;;;;;;4991380;28;20232;-84
2022/07/18 08:17:54;;;;;;;4.60;3.90;;;24.90;36.00;;;;;;4994799;28;20309;-85
2022/07/18 08:20:20;;;;;;;4.40;4.10;;;25.00;36.80;;;;;;4998241;28;20209;-86
2022/07/18 08:23:00;;;;;;;4.38;3.92;;;25.20;36.30;;;;;;5014067;28;20611;-86
2022/07/18 08:25:27;;;;;;;4.60;4.15;;;25.30;35.00;;;;;;5009292;28;20214;-86
2022/07/18 08:27:53;;;;;;;4.60;4.30;;;25.50;34.00;;;;;;5014822;28;20244;-85
2022/07/18 08:30:20;;;;;;;4.20;3.90;;;25.70;33.70;;;;;;5012639;28;20712;-86
2022/07/18 08:32:46;;;;;;;4.95;4.55;;;25.80;33.40;;;;;;4994507;28;20225;-85
2022/07/18 08:35:11;;;;;;;4.63;4.20;;;25.80;32.60;;;;;;5011157;28;20186;-85
2022/07/18 08:37:37;;;;;;;4.60;4.32;;;25.80;33.30;;;;;;5009101;28;20534;-86
2022/07/18 08:40:03;;;;;;;6.47;4.47;;;25.90;32.80;;;;;;5009010;28;20186;-87
2022/07/18 08:42:32;;;;;;;4.82;4.40;;;26.10;34.10;;;;;;5015060;28;20181;-86
2022/07/18 08:44:57;;;;;;;5.00;4.55;;;26.30;33.00;;;;;;4994233;28;20700;-86
2022/07/18 08:47:23;;;;;;;5.22;4.50;;;26.40;32.60;;;;;;5014614;28;20205;-86
2022/07/18 08:49:49;;;;;;;6.82;5.32;;;26.50;32.50;;;;;;5011516;28;20196;-86
2022/07/18 08:52:16;;;;;;;5.28;4.72;;;26.70;32.00;;;;;;5007332;28;20609;-85
2022/07/18 08:54:42;;;;;;;7.35;4.75;;;26.90;31.30;;;;;;5010457;28;20213;-86
2022/07/18 08:57:09;;;;;;;4.80;4.50;;;27.10;31.10;;;;;;5010651;28;20298;-87
2022/07/18 08:59:35;;;;;;;4.70;4.40;;;27.10;31.90;;;;;;4990710;28;20415;-84
2022/07/18 09:02:01;;;;;;;5.03;4.43;;;27.10;31.60;;;;;;5011435;28;20181;-85
2022/07/18 09:04:38;;;;;;;6.22;4.55;;;27.20;31.40;;;;;;5014037;28;20716;-86
2022/07/18 09:07:06;;;;;;;5.28;4.88;;;27.20;31.60;;;;;;4991980;28;20209;-86
2022/07/18 09:09:32;;;;;;;5.10;4.70;;;27.40;31.10;;;;;;5010857;28;20277;-85
2022/07/18 09:12:08;;;;;;;5.68;4.72;;;27.50;31.00;;;;;;5012812;28;20281;-85
2022/07/18 09:14:41;;;;;;;4.90;4.57;;;27.70;31.50;;;;;;5009900;28;20691;-86
2022/07/18 09:17:18;;;;;;;5.28;4.85;;;27.80;30.10;;;;;;5012299;28;20213;-86
2022/07/18 09:20:10;;;;;;;7.03;4.93;;;27.90;30.10;;;;;;5012201;28;20300;-87
2022/07/18 09:22:37;;;;;;;5.15;4.75;;;28.20;29.70;;;;;;5009557;28;20178;-85
2022/07/18 09:25:07;;;;;;;5.35;4.95;;;28.30;30.00;;;;;;5016855;28;20252;-86
2022/07/18 09:27:34;;;;;;;7.00;4.43;;;28.30;29.60;;;;;;5004013;28;20183;-86
2022/07/18 09:30:12;;;;;;;7.60;4.35;;;28.50;29.60;;;;;;5007699;28;20183;-85
2022/07/18 09:32:40;;;;;;;4.60;4.20;;;28.70;29.30;;;;;;5016396;28;20210;-87
2022/07/18 09:35:08;;;;;;;4.95;4.32;;;29.00;29.20;;;;;;5008594;28;20233;-86
2022/07/18 09:37:34;;;;;;;4.70;4.32;;;29.10;29.00;;;;;;5017006;28;20189;-86
2022/07/18 09:40:15;;;;;;;5.50;4.88;;;29.30;29.20;;;;;;4997295;28;20249;-87
2022/07/18 09:42:41;;;;;;;5.20;4.40;;;29.40;28.60;;;;;;5008953;28;20185;-86
2022/07/18 09:45:07;;;;;;;5.20;4.70;;;29.50;28.80;;;;;;5012067;28;20678;-86
2022/07/18 09:47:53;;;;;;;8.05;4.90;;;29.70;28.40;;;;;;4995000;28;20332;-85
2022/07/18 09:50:43;;;;;;;9.23;4.70;;;29.90;27.40;;;;;;5013376;28;20200;-84
2022/07/18 09:53:12;;;;;;;5.00;4.60;;;30.20;27.80;;;;;;5015769;28;20185;-86
2022/07/18 09:55:50;;;;;;;5.97;5.20;;;30.60;27.70;;;;;;5013659;28;20209;-86
2022/07/18 09:58:21;;;;;;;6.30;4.50;;;30.70;28.60;;;;;;4992887;28;20766;-87
2022/07/18 10:00:48;;;;;;;5.32;4.90;;;30.60;29.70;;;;;;5013770;28;20205;-85
2022/07/18 10:03:15;;;;;;;5.18;4.80;;;30.80;29.40;;;;;;5010823;28;20189;-87
2022/07/18 10:05:42;;;;;;;5.72;5.30;;;30.70;29.70;;;;;;5020309;28;20262;-86
2022/07/18 10:08:11;;;;;;;5.63;5.22;;;30.70;29.90;;;;;;5011983;28;20190;-86
2022/07/18 10:10:38;;;;;;;5.22;4.78;;;30.80;28.90;;;;;;5006731;28;20223;-86
2022/07/18 10:13:05;;;;;;;5.55;5.03;;;30.80;29.00;;;;;;5010533;28;20189;-87
2022/07/18 10:15:37;;;;;;;5.43;5.13;;;31.10;29.20;;;;;;5014628;28;20441;-87
2022/07/18 10:18:06;;;;;;;5.18;4.78;;;31.20;29.20;;;;;;5012829;28;20205;-86
2022/07/18 10:20:33;;;;;;;5.90;5.20;;;31.20;28.90;;;;;;5007948;28;20209;-86
2022/07/18 10:23:07;;;;;;;5.95;5.40;;;31.50;28.70;;;;;;5015876;28;20190;-86
2022/07/18 10:25:33;;;;;;;6.38;5.85;;;31.70;29.10;;;;;;5021334;28;20264;-86
2022/07/18 10:28:13;;;;;;;5.70;5.22;;;31.80;28.20;;;;;;5012828;28;20186;-87
2022/07/18 10:30:46;;;;;;;5.50;5.20;;;32.00;28.50;;;;;;5000461;28;20204;-86
2022/07/18 10:33:38;;;;;;;13.27;6.00;;;32.00;28.60;;;;;;5020371;28;20186;-86
2022/07/18 10:36:04;;;;;;;5.72;5.30;;;32.40;28.50;;;;;;4998914;28;20210;-85
2022/07/18 10:38:30;;;;;;;5.88;5.43;;;32.40;27.10;;;;;;5028788;28;20205;-84
2022/07/18 10:41:12;;;;;;;6.00;5.60;;;32.30;27.70;;;;;;5025473;28;21128;-86
2022/07/18 10:43:43;;;;;;;7.05;5.65;;;32.50;27.50;;;;;;5021604;28;20185;-86
2022/07/18 10:46:10;;;;;;;6.65;5.15;;;32.50;27.10;;;;;;5017501;28;20208;-85
2022/07/18 10:48:40;;;;;;;5.80;5.38;;;32.60;27.10;;;;;;5016649;28;20232;-86
2022/07/18 10:51:10;;;;;;;6.15;5.63;;;32.80;26.80;;;;;;5019647;28;20252;-86
2022/07/18 10:53:54;;;;;;;6.50;5.95;;;32.90;26.80;;;;;;5019027;28;20209;-85
2022/07/18 10:56:20;;;;;;;6.20;5.80;;;33.00;26.60;;;;;;5017605;28;20281;-86
2022/07/18 10:58:46;;;;;;;7.00;6.40;;;33.20;26.10;;;;;;5018361;28;20212;-86
2022/07/18 11:01:17;;;;;;;6.43;6.13;;;33.40;26.50;;;;;;5020079;28;20194;-85
2022/07/18 11:03:43;;;;;;;6.78;6.22;;;33.50;25.80;;;;;;5017928;28;20276;-86
2022/07/18 11:06:09;;;;;;;6.88;6.35;;;33.60;26.10;;;;;;4999475;28;20358;-85
2022/07/18 11:08:35;;;;;;;7.20;6.43;;;33.80;26.00;;;;;;5012299;28;20200;-85
2022/07/18 11:11:06;;;;;;;6.70;6.18;;;34.00;25.90;;;;;;5003882;28;20189;-87
2022/07/18 11:13:35;;;;;;;7.15;6.13;;;33.80;25.40;;;;;;5016803;28;20260;-85
2022/07/18 11:16:22;;;;;;;6.60;5.97;;;33.90;25.60;;;;;;5000715;28;20206;-86
2022/07/18 11:18:50;;;;;;;6.30;5.80;;;33.90;24.70;;;;;;5013069;28;20211;-85
2022/07/18 11:21:22;;;;;;;6.15;5.63;;;34.00;24.60;;;;;;5019378;28;20177;-84
2022/07/18 11:23:51;;;;;;;6.25;5.47;;;33.90;24.80;;;;;;5003444;28;20289;-85
2022/07/18 11:26:20;;;;;;;6.18;5.88;;;33.90;24.20;;;;;;5018698;28;20612;-85
2022/07/18 11:28:50;;;;;;;6.40;6.00;;;34.00;24.90;;;;;;5015453;28;20226;-86
2022/07/18 11:31:16;;;;;;;5.95;5.55;;;34.40;24.90;;;;;;5018965;28;20191;-86
2022/07/18 11:33:46;;;;;;;6.10;5.75;;;34.50;24.10;;;;;;5002627;28;20205;-86
2022/07/18 11:36:14;;;;;;;6.70;6.25;;;34.60;23.70;;;;;;4996417;28;20360;-84
2022/07/18 11:39:01;;;;;;;6.97;6.57;;;34.80;24.20;;;;;;5019494;28;20211;-84
2022/07/18 11:41:27;;;;;;;7.03;6.43;;;34.90;23.50;;;;;;5018257;28;20182;-86
2022/07/18 11:43:54;;;;;;;6.72;6.40;;;35.10;23.70;;;;;;4999105;28;20181;-85
2022/07/18 11:46:24;;;;;;;7.40;6.88;;;35.30;23.00;;;;;;5015997;28;20202;-86
2022/07/18 11:49:02;;;;;;;7.05;6.50;;;35.20;23.30;;;;;;5016906;28;20193;-86
2022/07/18 11:51:37;;;;;;;6.68;6.28;;;35.20;23.30;;;;;;5013194;28;20291;-85
2022/07/18 11:54:04;;;;;;;6.70;6.20;;;35.30;23.30;;;;;;5017955;28;20177;-85
2022/07/18 11:56:29;;;;;;;6.75;6.35;;;35.50;23.00;;;;;;5012703;28;20237;-87
2022/07/18 11:58:56;;;;;;;6.93;6.53;;;35.60;22.50;;;;;;5015158;28;20213;-86
2022/07/18 12:01:22;;;;;;;7.63;7.13;;;35.40;22.40;;;;;;4999446;28;20213;-85
2022/07/18 12:03:49;;;;;;;7.03;6.53;;;35.90;22.40;;;;;;4986247;28;20206;-86
2022/07/18 12:06:19;;;;;;;6.80;6.50;;;35.90;22.90;;;;;;5017982;28;20220;-86
2022/07/18 12:08:56;;;;;;;7.97;7.07;;;36.30;22.80;;;;;;5016535;28;20198;-88
2022/07/18 12:11:34;;;;;;;8.15;7.70;;;36.50;22.60;;;;;;5021793;28;20181;-85
2022/07/18 12:14:08;;;;;;;7.50;6.88;;;36.50;22.50;;;;;;5021957;28;20220;-86
2022/07/18 12:16:46;;;;;;;7.28;6.80;;;36.40;21.60;;;;;;5013191;28;20589;-85
2022/07/18 12:19:13;;;;;;;7.40;6.93;;;36.60;22.00;;;;;;5010000;28;20680;-86
2022/07/18 12:21:57;;;;;;;7.57;7.15;;;36.90;22.60;;;;;;5020383;28;20185;-86
2022/07/18 12:24:49;;;;;;;7.43;7.03;;;37.00;21.80;;;;;;5018476;28;20597;-86
2022/07/18 12:27:35;;;;;;;7.05;6.65;;;37.00;21.40;;;;;;5015098;28;20263;-85
2022/07/18 12:30:12;;;;;;;7.55;7.05;;;36.70;21.20;;;;;;4997717;28;20190;-85
2022/07/18 12:32:51;;;;;;;7.78;7.28;;;37.00;21.80;;;;;;5019528;28;20223;-86
2022/07/18 12:35:23;;;;;;;8.60;8.05;;;37.30;21.70;;;;;;5029674;28;20256;-85
2022/07/18 12:37:54;;;;;;;7.90;7.22;;;37.40;21.00;;;;;;5023765;28;20196;-86
2022/07/18 12:40:20;;;;;;;7.57;7.13;;;37.60;21.20;;;;;;5002316;28;20209;-86
2022/07/18 12:42:46;;;;;;;7.47;6.95;;;37.60;21.20;;;;;;5018601;28;20190;-86
2022/07/18 12:45:13;;;;;;;7.70;7.28;;;37.80;21.00;;;;;;5023505;28;20224;-86
2022/07/18 12:47:40;;;;;;;7.45;6.97;;;37.80;21.00;;;;;;5021411;28;20185;-86
2022/07/18 12:50:07;;;;;;;8.00;7.40;;;37.70;20.30;;;;;;5024150;28;20253;-86